sensor_id;sensor_type;location;lat;lon;timestamp;pressure;altitude;pressure_sealevel;temperature;humidity
62710;BME280;48770;51.624;5.886;2023-04-12T00:00:22;100472.53;;;20.99;33.42
62710;BME280;48770;51.624;5.886;2023-04-12T00:02:48;100465.81;;;21.00;33.51
62710;BME280;48770;51.624;5.886;2023-04-12T00:05:13;100463.03;;;21.00;33.44
62710;BME280;48770;51.624;5.886;2023-04-12T00:07:39;100465.81;;;21.00;33.48
62710;BME280;48770;51.624;5.886;2023-04-12T00:10:07;100446.72;;;20.99;33.51
62710;BME280;48770;51.624;5.886;2023-04-12T00:12:33;100444.75;;;20.99;33.51
62710;BME280;48770;51.624;5.886;2023-04-12T00:14:59;100438.38;;;20.99;33.64
62710;BME280;48770;51.624;5.886;2023-04-12T00:17:25;100415.34;;;20.98;33.72
62710;BME280;48770;51.624;5.886;2023-04-12T00:19:50;100414.09;;;20.96;33.41
62710;BME280;48770;51.624;5.886;2023-04-12T00:22:16;100406.56;;;20.96;33.45
62710;BME280;48770;51.624;5.886;2023-04-12T00:24:41;100408.53;;;20.96;33.62
62710;BME280;48770;51.624;5.886;2023-04-12T00:27:07;100399.84;;;20.97;33.63
62710;BME280;48770;51.624;5.886;2023-04-12T00:29:33;100393.84;;;20.95;33.48
62710;BME280;48770;51.624;5.886;2023-04-12T00:31:59;100399.41;;;20.95;33.50
62710;BME280;48770;51.624;5.886;2023-04-12T00:34:26;100394.66;;;20.96;33.51
62710;BME280;48770;51.624;5.886;2023-04-12T00:36:52;100379.13;;;20.94;33.56
62710;BME280;48770;51.624;5.886;2023-04-12T00:39:17;100364.44;;;20.94;33.66
62710;BME280;48770;51.624;5.886;2023-04-12T00:41:43;100360.84;;;20.93;33.38
62710;BME280;48770;51.624;5.886;2023-04-12T00:44:08;100350.91;;;20.92;33.66
62710;BME280;48770;51.624;5.886;2023-04-12T00:46:34;100335.03;;;20.93;33.81
62710;BME280;48770;51.624;5.886;2023-04-12T00:49:01;100336.22;;;20.92;33.73
62710;BME280;48770;51.624;5.886;2023-04-12T00:51:27;100327.88;;;20.92;33.70
62710;BME280;48770;51.624;5.886;2023-04-12T00:53:58;100326.25;;;20.91;33.56
62710;BME280;48770;51.624;5.886;2023-04-12T00:56:24;100317.56;;;20.92;33.61
62710;BME280;48770;51.624;5.886;2023-04-12T00:58:52;100315.16;;;20.91;33.58
62710;BME280;48770;51.624;5.886;2023-04-12T01:01:17;100304.84;;;20.91;33.57
62710;BME280;48770;51.624;5.886;2023-04-12T01:03:44;100302.06;;;20.91;33.58
62710;BME280;48770;51.624;5.886;2023-04-12T01:09:50;100298.03;;;20.89;33.81
62710;BME280;48770;51.624;5.886;2023-04-12T01:14:58;100284.88;;;20.86;33.71
62710;BME280;48770;51.624;5.886;2023-04-12T01:17:27;100267.03;;;20.87;33.48
62710;BME280;48770;51.624;5.886;2023-04-12T01:20:00;100264.25;;;20.87;33.86
62710;BME280;48770;51.624;5.886;2023-04-12T01:23:16;100259.44;;;20.84;33.64
62710;BME280;48770;51.624;5.886;2023-04-12T01:25:58;100241.16;;;20.83;33.68
62710;BME280;48770;51.624;5.886;2023-04-12T01:28:33;100226.91;;;20.84;33.83
62710;BME280;48770;51.624;5.886;2023-04-12T01:31:02;100224.13;;;20.84;33.72
62710;BME280;48770;51.624;5.886;2023-04-12T01:33:29;100212.63;;;20.86;33.96
62710;BME280;48770;51.624;5.886;2023-04-12T01:35:57;100207.44;;;20.84;33.90
62710;BME280;48770;51.624;5.886;2023-04-12T01:38:23;100209.84;;;20.86;33.87
62710;BME280;48770;51.624;5.886;2023-04-12T01:40:49;100207.06;;;20.86;33.81
62710;BME280;48770;51.624;5.886;2023-04-12T01:43:14;100192.38;;;20.85;33.88
62710;BME280;48770;51.624;5.886;2023-04-12T01:45:40;100189.59;;;20.85;34.13
62710;BME280;48770;51.624;5.886;2023-04-12T01:48:07;100178.47;;;20.85;33.77
62710;BME280;48770;51.624;5.886;2023-04-12T01:50:40;100173.72;;;20.86;33.57
62710;BME280;48770;51.624;5.886;2023-04-12T01:53:47;100163.25;;;20.79;33.80
62710;BME280;48770;51.624;5.886;2023-04-12T01:56:16;100165.31;;;20.82;34.11
62710;BME280;48770;51.624;5.886;2023-04-12T01:58:42;100149.47;;;20.83;33.83
62710;BME280;48770;51.624;5.886;2023-04-12T02:01:09;100153.84;;;20.84;33.82
62710;BME280;48770;51.624;5.886;2023-04-12T02:03:39;100150.25;;;20.83;34.07
62710;BME280;48770;51.624;5.886;2023-04-12T02:06:06;100133.59;;;20.83;34.16
62710;BME280;48770;51.624;5.886;2023-04-12T02:08:33;100132.41;;;20.84;34.15
62710;BME280;48770;51.624;5.886;2023-04-12T02:10:58;100126.06;;;20.84;33.74
62710;BME280;48770;51.624;5.886;2023-04-12T02:13:23;100118.91;;;20.83;34.01
62710;BME280;48770;51.624;5.886;2023-04-12T02:15:50;100111.38;;;20.83;34.23
62710;BME280;48770;51.624;5.886;2023-04-12T02:18:18;100096.66;;;20.83;33.76
62710;BME280;48770;51.624;5.886;2023-04-12T02:20:44;100075.63;;;20.82;33.81
62710;BME280;48770;51.624;5.886;2023-04-12T02:23:09;100073.63;;;20.82;34.04
62710;BME280;48770;51.624;5.886;2023-04-12T02:25:34;100066.44;;;20.81;33.90
62710;BME280;48770;51.624;5.886;2023-04-12T02:28:00;100058.94;;;20.82;33.83
62710;BME280;48770;51.624;5.886;2023-04-12T02:30:26;100049.78;;;20.81;33.97
62710;BME280;48770;51.624;5.886;2023-04-12T02:32:51;100043.41;;;20.81;33.97
62710;BME280;48770;51.624;5.886;2023-04-12T02:35:17;100029.53;;;20.81;33.73
62710;BME280;48770;51.624;5.886;2023-04-12T02:37:44;100023.97;;;20.81;33.96
62710;BME280;48770;51.624;5.886;2023-04-12T02:40:11;100028.38;;;20.82;33.97
62710;BME280;48770;51.624;5.886;2023-04-12T02:42:38;100008.09;;;20.81;33.86
62710;BME280;48770;51.624;5.886;2023-04-12T02:45:04;99996.19;;;20.81;34.05
62710;BME280;48770;51.624;5.886;2023-04-12T02:47:29;99995.38;;;20.80;34.23
62710;BME280;48770;51.624;5.886;2023-04-12T02:49:55;99993.78;;;20.79;34.04
62710;BME280;48770;51.624;5.886;2023-04-12T02:52:20;100000.13;;;20.80;34.27
62710;BME280;48770;51.624;5.886;2023-04-12T02:54:48;99994.59;;;20.80;33.92
62710;BME280;48770;51.624;5.886;2023-04-12T02:57:13;99973.53;;;20.79;34.21
62710;BME280;48770;51.624;5.886;2023-04-12T02:59:40;99968.78;;;20.79;34.31
62710;BME280;48770;51.624;5.886;2023-04-12T03:02:05;99956.88;;;20.79;34.38
62710;BME280;48770;51.624;5.886;2023-04-12T03:04:31;99952.47;;;20.78;34.03
62710;BME280;48770;51.624;5.886;2023-04-12T03:06:56;99949.72;;;20.78;34.09
62710;BME280;48770;51.624;5.886;2023-04-12T03:09:22;99946.94;;;20.78;34.24
62710;BME280;48770;51.624;5.886;2023-04-12T03:11:47;99938.59;;;20.78;34.12
62710;BME280;48770;51.624;5.886;2023-04-12T03:14:13;99923.09;;;20.77;34.01
62710;BME280;48770;51.624;5.886;2023-04-12T03:16:38;99927.06;;;20.76;34.01
62710;BME280;48770;51.624;5.886;2023-04-12T03:19:04;99919.53;;;20.76;34.06
62710;BME280;48770;51.624;5.886;2023-04-12T03:21:30;99913.97;;;20.76;34.29
62710;BME280;48770;51.624;5.886;2023-04-12T03:23:57;99910.38;;;20.76;34.07
62710;BME280;48770;51.624;5.886;2023-04-12T03:26:22;99912.38;;;20.75;34.26
62710;BME280;48770;51.624;5.886;2023-04-12T03:28:53;99901.25;;;20.75;34.05
62710;BME280;48770;51.624;5.886;2023-04-12T03:31:18;99899.28;;;20.76;34.25
62710;BME280;48770;51.624;5.886;2023-04-12T03:33:45;99898.47;;;20.75;34.29
62710;BME280;48770;51.624;5.886;2023-04-12T03:36:10;99889.34;;;20.75;34.20
62710;BME280;48770;51.624;5.886;2023-04-12T03:38:36;99888.53;;;20.74;34.25
62710;BME280;48770;51.624;5.886;2023-04-12T03:41:01;99883.34;;;20.73;34.19
62710;BME280;48770;51.624;5.886;2023-04-12T03:43:27;99884.16;;;20.73;34.02
62710;BME280;48770;51.624;5.886;2023-04-12T03:45:52;99882.56;;;20.72;33.98
62710;BME280;48770;51.624;5.886;2023-04-12T03:48:17;99869.47;;;20.73;34.00
62710;BME280;48770;51.624;5.886;2023-04-12T03:50:43;99865.88;;;20.72;34.26
62710;BME280;48770;51.624;5.886;2023-04-12T03:53:09;99867.50;;;20.73;33.98
62710;BME280;48770;51.624;5.886;2023-04-12T03:55:35;99848.41;;;20.72;34.18
62710;BME280;48770;51.624;5.886;2023-04-12T03:58:02;99835.34;;;20.72;34.34
62710;BME280;48770;51.624;5.886;2023-04-12T04:00:27;99840.09;;;20.72;34.07
62710;BME280;48770;51.624;5.886;2023-04-12T04:02:53;99817.06;;;20.71;33.96
62710;BME280;48770;51.624;5.886;2023-04-12T04:05:18;99832.94;;;20.71;34.20
62710;BME280;48770;51.624;5.886;2023-04-12T04:07:43;99820.22;;;20.70;34.12
62710;BME280;48770;51.624;5.886;2023-04-12T04:10:10;99811.50;;;20.71;34.34
62710;BME280;48770;51.624;5.886;2023-04-12T04:12:35;99809.91;;;20.70;34.14
62710;BME280;48770;51.624;5.886;2023-04-12T04:15:00;99805.53;;;20.69;34.06
62710;BME280;48770;51.624;5.886;2023-04-12T04:17:26;99811.09;;;20.69;34.25
62710;BME280;48770;51.624;5.886;2023-04-12T04:19:51;99802.75;;;20.69;34.17
62710;BME280;48770;51.624;5.886;2023-04-12T04:22:16;99801.94;;;20.69;34.23
62710;BME280;48770;51.624;5.886;2023-04-12T04:24:45;99797.19;;;20.69;34.02
62710;BME280;48770;51.624;5.886;2023-04-12T04:27:12;99789.66;;;20.70;34.04
62710;BME280;48770;51.624;5.886;2023-04-12T04:29:40;99778.94;;;20.68;34.06
62710;BME280;48770;51.624;5.886;2023-04-12T04:32:10;99782.50;;;20.69;34.21
62710;BME280;48770;51.624;5.886;2023-04-12T04:34:35;99790.03;;;20.68;34.08
62710;BME280;48770;51.624;5.886;2023-04-12T04:37:01;99791.22;;;20.67;34.31
62710;BME280;48770;51.624;5.886;2023-04-12T04:39:26;99800.72;;;20.66;34.09
62710;BME280;48770;51.624;5.886;2023-04-12T04:41:52;99803.13;;;20.68;34.19
62710;BME280;48770;51.624;5.886;2023-04-12T04:44:19;99788.44;;;20.67;34.33
62710;BME280;48770;51.624;5.886;2023-04-12T04:46:44;99777.34;;;20.67;34.13
62710;BME280;48770;51.624;5.886;2023-04-12T04:49:10;99777.72;;;20.66;33.99
62710;BME280;48770;51.624;5.886;2023-04-12T04:51:35;99772.97;;;20.66;34.40
62710;BME280;48770;51.624;5.886;2023-04-12T04:54:01;99766.59;;;20.66;33.98
62710;BME280;48770;51.624;5.886;2023-04-12T04:56:27;99759.88;;;20.67;34.14
62710;BME280;48770;51.624;5.886;2023-04-12T04:58:53;99755.50;;;20.66;34.27
62710;BME280;48770;51.624;5.886;2023-04-12T05:01:18;99752.72;;;20.66;34.34
62710;BME280;48770;51.624;5.886;2023-04-12T05:03:43;99754.31;;;20.67;34.20
62710;BME280;48770;51.624;5.886;2023-04-12T05:06:12;99749.94;;;20.66;34.43
62710;BME280;48770;51.624;5.886;2023-04-12T05:08:37;99736.84;;;20.66;34.31
62710;BME280;48770;51.624;5.886;2023-04-12T05:11:02;99740.81;;;20.65;34.50
62710;BME280;48770;51.624;5.886;2023-04-12T05:13:28;99734.44;;;20.65;34.56
62710;BME280;48770;51.624;5.886;2023-04-12T05:15:53;99741.59;;;20.66;34.58
62710;BME280;48770;51.624;5.886;2023-04-12T05:18:19;99738.03;;;20.65;34.53
62710;BME280;48770;51.624;5.886;2023-04-12T05:20:45;99729.69;;;20.65;34.48
62710;BME280;48770;51.624;5.886;2023-04-12T05:23:12;99724.94;;;20.66;34.73
62710;BME280;48770;51.624;5.886;2023-04-12T05:25:42;99714.22;;;20.64;34.41
62710;BME280;48770;51.624;5.886;2023-04-12T05:28:08;99726.13;;;20.65;34.68
62710;BME280;48770;51.624;5.886;2023-04-12T05:30:38;99705.88;;;20.64;34.50
62710;BME280;48770;51.624;5.886;2023-04-12T05:33:04;99707.84;;;20.63;34.60
62710;BME280;48770;51.624;5.886;2023-04-12T05:35:29;99710.63;;;20.63;34.77
62710;BME280;48770;51.624;5.886;2023-04-12T05:37:55;99703.47;;;20.62;34.51
62710;BME280;48770;51.624;5.886;2023-04-12T05:40:20;99695.16;;;20.62;34.63
62710;BME280;48770;51.624;5.886;2023-04-12T05:42:46;99695.16;;;20.62;34.69
62710;BME280;48770;51.624;5.886;2023-04-12T05:45:11;99688.00;;;20.61;34.54
62710;BME280;48770;51.624;5.886;2023-04-12T05:47:36;99701.88;;;20.61;34.64
62710;BME280;48770;51.624;5.886;2023-04-12T05:50:02;99704.66;;;20.61;34.63
62710;BME280;48770;51.624;5.886;2023-04-12T05:52:27;99696.31;;;20.61;34.89
62710;BME280;48770;51.624;5.886;2023-04-12T05:54:52;99696.31;;;20.61;34.75
62710;BME280;48770;51.624;5.886;2023-04-12T05:57:17;99696.31;;;20.61;34.94
62710;BME280;48770;51.624;5.886;2023-04-12T05:59:43;99691.16;;;20.60;34.81
62710;BME280;48770;51.624;5.886;2023-04-12T06:02:09;99691.56;;;20.62;34.55
62710;BME280;48770;51.624;5.886;2023-04-12T06:04:35;99696.31;;;20.61;35.00
62710;BME280;48770;51.624;5.886;2023-04-12T06:07:02;99689.97;;;20.61;35.09
62710;BME280;48770;51.624;5.886;2023-04-12T06:09:29;99695.53;;;20.61;34.87
62710;BME280;48770;51.624;5.886;2023-04-12T06:11:55;99691.94;;;20.60;34.98
62710;BME280;48770;51.624;5.886;2023-04-12T06:14:21;99691.94;;;20.60;34.84
62710;BME280;48770;51.624;5.886;2023-04-12T06:16:46;99692.75;;;20.61;34.94
62710;BME280;48770;51.624;5.886;2023-04-12T06:19:11;99700.28;;;20.60;35.03
62710;BME280;48770;51.624;5.886;2023-04-12T06:21:37;99705.84;;;20.60;34.78
62710;BME280;48770;51.624;5.886;2023-04-12T06:24:02;99707.81;;;20.60;34.79
62710;BME280;48770;51.624;5.886;2023-04-12T06:26:29;99697.50;;;20.60;34.98
62710;BME280;48770;51.624;5.886;2023-04-12T06:28:54;99684.81;;;20.59;34.88
62710;BME280;48770;51.624;5.886;2023-04-12T06:31:19;99664.56;;;20.59;35.10
62710;BME280;48770;51.624;5.886;2023-04-12T06:33:45;99681.22;;;20.59;34.97
62710;BME280;48770;51.624;5.886;2023-04-12T06:36:11;99697.09;;;20.58;34.95
62710;BME280;48770;51.624;5.886;2023-04-12T06:38:38;99684.00;;;20.59;35.12
62710;BME280;48770;51.624;5.886;2023-04-12T06:41:03;99680.44;;;20.58;35.03
62710;BME280;48770;51.624;5.886;2023-04-12T06:43:28;99685.19;;;20.58;34.90
62710;BME280;48770;51.624;5.886;2023-04-12T06:45:54;99664.94;;;20.57;34.95
62710;BME280;48770;51.624;5.886;2023-04-12T06:48:21;99657.41;;;20.58;34.99
62710;BME280;48770;51.624;5.886;2023-04-12T06:50:46;99647.47;;;20.57;34.92
62710;BME280;48770;51.624;5.886;2023-04-12T06:53:12;99638.34;;;20.56;35.05
62710;BME280;48770;51.624;5.886;2023-04-12T06:55:38;99641.94;;;20.57;35.08
62710;BME280;48770;51.624;5.886;2023-04-12T06:58:03;99639.94;;;20.57;35.08
62710;BME280;48770;51.624;5.886;2023-04-12T07:00:29;99635.56;;;20.56;34.89
62710;BME280;48770;51.624;5.886;2023-04-12T07:02:54;99633.94;;;20.55;35.05
62710;BME280;48770;51.624;5.886;2023-04-12T07:05:20;99635.56;;;20.56;35.07
62710;BME280;48770;51.624;5.886;2023-04-12T07:07:45;99641.94;;;20.57;34.95
62710;BME280;48770;51.624;5.886;2023-04-12T07:10:11;99636.72;;;20.55;35.18
62710;BME280;48770;51.624;5.886;2023-04-12T07:12:36;99635.13;;;20.54;34.98
62710;BME280;48770;51.624;5.886;2023-04-12T07:15:02;99622.41;;;20.53;35.12
62710;BME280;48770;51.624;5.886;2023-04-12T07:17:27;99630.75;;;20.53;35.44
62710;BME280;48770;51.624;5.886;2023-04-12T07:19:53;99650.19;;;20.53;35.41
62710;BME280;48770;51.624;5.886;2023-04-12T07:22:19;99629.94;;;20.53;35.44
62710;BME280;48770;51.624;5.886;2023-04-12T07:24:44;99633.91;;;20.52;35.66
62710;BME280;48770;51.624;5.886;2023-04-12T07:27:09;99635.88;;;20.51;35.97
62710;BME280;48770;51.624;5.886;2023-04-12T07:29:35;99633.09;;;20.51;35.84
62710;BME280;48770;51.624;5.886;2023-04-12T07:32:02;99621.19;;;20.51;35.60
62710;BME280;48770;51.624;5.886;2023-04-12T07:34:28;99637.06;;;20.50;35.68
62710;BME280;48770;51.624;5.886;2023-04-12T07:36:54;99632.69;;;20.49;35.99
62710;BME280;48770;51.624;5.886;2023-04-12T07:39:19;99633.88;;;20.48;35.92
62710;BME280;48770;51.624;5.886;2023-04-12T07:41:45;99635.84;;;20.48;36.09
62710;BME280;48770;51.624;5.886;2023-04-12T07:44:12;99637.81;;;20.47;35.96
62710;BME280;48770;51.624;5.886;2023-04-12T07:46:38;99639.00;;;20.46;35.95
62710;BME280;48770;51.624;5.886;2023-04-12T07:49:03;99635.06;;;20.47;36.28
62710;BME280;48770;51.624;5.886;2023-04-12T07:51:29;99633.44;;;20.46;35.71
62710;BME280;48770;51.624;5.886;2023-04-12T07:53:55;99640.19;;;20.45;36.06
62710;BME280;48770;51.624;5.886;2023-04-12T07:56:20;99641.38;;;20.44;36.19
62710;BME280;48770;51.624;5.886;2023-04-12T07:58:45;99651.66;;;20.44;36.36
62710;BME280;48770;51.624;5.886;2023-04-12T08:01:12;99659.19;;;20.43;36.35
62710;BME280;48770;51.624;5.886;2023-04-12T08:03:37;99656.44;;;20.43;36.28
62710;BME280;48770;51.624;5.886;2023-04-12T08:06:03;99638.97;;;20.43;36.43
62710;BME280;48770;51.624;5.886;2023-04-12T08:08:28;99656.44;;;20.43;36.60
62710;BME280;48770;51.624;5.886;2023-04-12T08:10:56;99642.13;;;20.41;36.50
62710;BME280;48770;51.624;5.886;2023-04-12T08:13:21;99654.03;;;20.42;36.25
62710;BME280;48770;51.624;5.886;2023-04-12T08:15:47;99653.22;;;20.41;36.76
62710;BME280;48770;51.624;5.886;2023-04-12T08:18:13;99653.22;;;20.41;36.40
62710;BME280;48770;51.624;5.886;2023-04-12T08:20:38;99662.34;;;20.42;36.75
62710;BME280;48770;51.624;5.886;2023-04-12T08:23:09;99660.75;;;20.41;36.82
62710;BME280;48770;51.624;5.886;2023-04-12T08:25:35;99658.78;;;20.41;36.79
62710;BME280;48770;51.624;5.886;2023-04-12T08:28:00;99657.19;;;20.40;36.84
62710;BME280;48770;51.624;5.886;2023-04-12T08:30:26;99654.41;;;20.40;36.60
62710;BME280;48770;51.624;5.886;2023-04-12T08:32:52;99649.66;;;20.41;36.62
62710;BME280;48770;51.624;5.886;2023-04-12T08:35:18;99656.00;;;20.41;36.61
62710;BME280;48770;51.624;5.886;2023-04-12T08:37:43;99659.59;;;20.42;36.74
62710;BME280;48770;51.624;5.886;2023-04-12T08:40:09;99657.97;;;20.41;36.67
62710;BME280;48770;51.624;5.886;2023-04-12T08:42:35;99665.13;;;20.42;37.06
62710;BME280;48770;51.624;5.886;2023-04-12T08:45:07;99644.91;;;20.41;36.90
62710;BME280;48770;51.624;5.886;2023-04-12T08:47:34;99652.06;;;20.42;36.72
62710;BME280;48770;51.624;5.886;2023-04-12T08:50:01;99658.78;;;20.41;37.04
62710;BME280;48770;51.624;5.886;2023-04-12T08:52:27;99659.59;;;20.42;37.02
62710;BME280;48770;51.624;5.886;2023-04-12T08:54:54;99659.19;;;20.43;36.83
62710;BME280;48770;51.624;5.886;2023-04-12T08:57:19;99664.75;;;20.43;36.76
62710;BME280;48770;51.624;5.886;2023-04-12T08:59:46;99669.13;;;20.44;36.73
62710;BME280;48770;51.624;5.886;2023-04-12T09:02:14;99658.81;;;20.45;36.93
62710;BME280;48770;51.624;5.886;2023-04-12T09:04:49;99661.97;;;20.43;36.89
62710;BME280;48770;51.624;5.886;2023-04-12T09:07:15;99664.75;;;20.43;36.93
62710;BME280;48770;51.624;5.886;2023-04-12T09:09:41;99669.13;;;20.44;37.04
62710;BME280;48770;51.624;5.886;2023-04-12T09:12:07;99661.97;;;20.43;36.83
62710;BME280;48770;51.624;5.886;2023-04-12T09:14:33;99653.28;;;20.45;36.95
62710;BME280;48770;51.624;5.886;2023-04-12T09:16:58;99643.34;;;20.44;36.79
62710;BME280;48770;51.624;5.886;2023-04-12T09:19:34;99646.13;;;20.44;36.91
62710;BME280;48770;51.624;5.886;2023-04-12T09:22:00;99633.03;;;20.44;36.87
62710;BME280;48770;51.624;5.886;2023-04-12T09:24:26;99627.09;;;20.46;37.01
62710;BME280;48770;51.624;5.886;2023-04-12T09:27:05;99623.53;;;20.45;36.84
62710;BME280;48770;51.624;5.886;2023-04-12T09:29:32;99629.50;;;20.47;36.84
62710;BME280;48770;51.624;5.886;2023-04-12T09:32:07;99623.94;;;20.47;36.77
62710;BME280;48770;51.624;5.886;2023-04-12T09:34:34;99613.63;;;20.48;36.94
62710;BME280;48770;51.624;5.886;2023-04-12T09:37:15;99607.69;;;20.49;36.99
62710;BME280;48770;51.624;5.886;2023-04-12T09:39:41;99602.94;;;20.50;37.16
62710;BME280;48770;51.624;5.886;2023-04-12T09:42:10;99604.53;;;20.51;36.99
62710;BME280;48770;51.624;5.886;2023-04-12T09:44:36;99610.50;;;20.53;37.00
62710;BME280;48770;51.624;5.886;2023-04-12T09:47:02;99606.19;;;20.55;36.94
62710;BME280;48770;51.624;5.886;2023-04-12T09:49:40;99614.50;;;20.55;37.01
62710;BME280;48770;51.624;5.886;2023-04-12T09:52:06;99611.38;;;20.57;37.13
62710;BME280;48770;51.624;5.886;2023-04-12T09:54:43;99620.50;;;20.57;37.33
62710;BME280;48770;51.624;5.886;2023-04-12T09:57:10;99623.69;;;20.59;37.19
62710;BME280;48770;51.624;5.886;2023-04-12T09:59:38;99632.03;;;20.59;37.63
62710;BME280;48770;51.624;5.886;2023-04-12T10:02:13;99623.69;;;20.59;37.47
62710;BME280;48770;51.624;5.886;2023-04-12T10:04:40;99622.53;;;20.60;37.32
62710;BME280;48770;51.624;5.886;2023-04-12T10:07:06;99618.59;;;20.65;37.36
62710;BME280;48770;51.624;5.886;2023-04-12T10:09:37;99619.00;;;20.67;37.54
62710;BME280;48770;51.624;5.886;2023-04-12T10:12:04;99620.22;;;20.70;37.56
62710;BME280;48770;51.624;5.886;2023-04-12T10:14:30;99617.06;;;20.71;37.48
62710;BME280;48770;51.624;5.886;2023-04-12T10:16:56;99622.25;;;20.73;37.59
62710;BME280;48770;51.624;5.886;2023-04-12T10:19:24;99617.91;;;20.75;37.57
62710;BME280;48770;51.624;5.886;2023-04-12T10:21:50;99608.38;;;20.76;37.46
62710;BME280;48770;51.624;5.886;2023-04-12T10:24:15;99608.81;;;20.78;37.31
62710;BME280;48770;51.624;5.886;2023-04-12T10:26:41;99608.41;;;20.80;37.25
62710;BME280;48770;51.624;5.886;2023-04-12T10:31:49;99591.81;;;20.83;37.59
62710;BME280;48770;51.624;5.886;2023-04-12T10:34:14;99603.34;;;20.85;37.70
62710;BME280;48770;51.624;5.886;2023-04-12T10:36:57;99601.34;;;20.86;37.68
62710;BME280;48770;51.624;5.886;2023-04-12T10:44:40;99596.63;;;20.90;37.70
62710;BME280;48770;51.624;5.886;2023-04-12T10:47:05;99606.94;;;20.89;37.53
62710;BME280;48770;51.624;5.886;2023-04-12T10:49:30;99586.31;;;20.90;37.55
62710;BME280;48770;51.624;5.886;2023-04-12T10:56:50;99586.72;;;20.92;37.52
62710;BME280;48770;51.624;5.886;2023-04-12T10:59:16;99585.53;;;20.93;37.76
62710;BME280;48770;51.624;5.886;2023-04-12T11:02:10;99594.25;;;20.92;37.63
62710;BME280;48770;51.624;5.886;2023-04-12T11:04:36;99603.41;;;20.92;37.42
62710;BME280;48770;51.624;5.886;2023-04-12T11:07:06;99605.78;;;20.94;37.50
62710;BME280;48770;51.624;5.886;2023-04-12T11:19:36;99616.09;;;20.93;37.28
62710;BME280;48770;51.624;5.886;2023-04-12T11:22:03;99612.53;;;20.93;37.42
62710;BME280;48770;51.624;5.886;2023-04-12T11:24:28;99610.53;;;20.93;37.30
62710;BME280;48770;51.624;5.886;2023-04-12T11:26:55;99616.50;;;20.92;37.42
62710;BME280;48770;51.624;5.886;2023-04-12T11:29:26;99622.03;;;20.92;37.25
62710;BME280;48770;51.624;5.886;2023-04-12T11:31:52;99621.25;;;20.91;37.25
62710;BME280;48770;51.624;5.886;2023-04-12T11:34:19;99619.66;;;20.90;37.50
62710;BME280;48770;51.624;5.886;2023-04-12T11:36:45;99617.25;;;20.89;37.42
62710;BME280;48770;51.624;5.886;2023-04-12T11:39:12;99620.03;;;20.89;37.52
62710;BME280;48770;51.624;5.886;2023-04-12T11:41:46;99630.75;;;20.87;37.65
62710;BME280;48770;51.624;5.886;2023-04-12T11:44:12;99629.13;;;20.86;37.54
62710;BME280;48770;51.624;5.886;2023-04-12T11:46:38;99633.09;;;20.85;37.64
62710;BME280;48770;51.624;5.886;2023-04-12T11:49:04;99627.53;;;20.85;37.70
62710;BME280;48770;51.624;5.886;2023-04-12T11:51:30;99635.06;;;20.84;37.40
62710;BME280;48770;51.624;5.886;2023-04-12T11:53:57;99636.25;;;20.83;37.52
62710;BME280;48770;51.624;5.886;2023-04-12T11:56:23;99641.00;;;20.83;37.20
62710;BME280;48770;51.624;5.886;2023-04-12T11:58:49;99652.13;;;20.83;37.10
62710;BME280;48770;51.624;5.886;2023-04-12T12:01:16;99641.38;;;20.81;37.50
62710;BME280;48770;51.624;5.886;2023-04-12T12:03:42;99660.03;;;20.81;37.28
62710;BME280;48770;51.624;5.886;2023-04-12T12:06:08;99653.66;;;20.80;37.51
62710;BME280;48770;51.624;5.886;2023-04-12T12:08:34;99656.44;;;20.80;37.21
62710;BME280;48770;51.624;5.886;2023-04-12T12:11:00;99644.53;;;20.80;37.45
62710;BME280;48770;51.624;5.886;2023-04-12T12:13:25;99658.81;;;20.78;37.22
62710;BME280;48770;51.624;5.886;2023-04-12T12:15:51;99650.84;;;20.77;37.19
62710;BME280;48770;51.624;5.886;2023-04-12T12:18:17;99655.22;;;20.78;37.36
62710;BME280;48770;51.624;5.886;2023-04-12T12:20:49;99650.84;;;20.77;37.41
62710;BME280;48770;51.624;5.886;2023-04-12T12:23:31;99646.84;;;20.74;37.24
62710;BME280;48770;51.624;5.886;2023-04-12T12:25:57;99647.66;;;20.75;37.18
62710;BME280;48770;51.624;5.886;2023-04-12T12:28:23;99641.31;;;20.74;37.43
62710;BME280;48770;51.624;5.886;2023-04-12T12:30:52;99634.94;;;20.74;37.50
62710;BME280;48770;51.624;5.886;2023-04-12T12:33:19;99651.22;;;20.75;37.50
62710;BME280;48770;51.624;5.886;2023-04-12T12:35:44;99647.25;;;20.73;37.41
62710;BME280;48770;51.624;5.886;2023-04-12T12:38:09;99649.22;;;20.72;37.34
62710;BME280;48770;51.624;5.886;2023-04-12T12:40:35;99647.25;;;20.73;37.38
62710;BME280;48770;51.624;5.886;2023-04-12T12:43:00;99655.56;;;20.73;37.37
62710;BME280;48770;51.624;5.886;2023-04-12T12:45:27;99643.66;;;20.72;37.18
62710;BME280;48770;51.624;5.886;2023-04-12T12:47:56;99646.44;;;20.72;37.52
62710;BME280;48770;51.624;5.886;2023-04-12T12:50:26;99642.06;;;20.71;37.49
62710;BME280;48770;51.624;5.886;2023-04-12T12:52:53;99644.47;;;20.73;37.27
62710;BME280;48770;51.624;5.886;2023-04-12T12:55:19;99646.44;;;20.72;37.42
62710;BME280;48770;51.624;5.886;2023-04-12T12:57:46;99647.63;;;20.71;37.35
62710;BME280;48770;51.624;5.886;2023-04-12T13:00:13;99651.19;;;20.72;37.38
62710;BME280;48770;51.624;5.886;2023-04-12T13:02:42;99680.16;;;20.71;37.33
62710;BME280;48770;51.624;5.886;2023-04-12T13:05:08;99685.72;;;20.71;37.32
62710;BME280;48770;51.624;5.886;2023-04-12T13:07:34;99688.50;;;20.71;37.45
62710;BME280;48770;51.624;5.886;2023-04-12T13:09:59;99676.97;;;20.69;37.16
62710;BME280;48770;51.624;5.886;2023-04-12T13:12:25;99696.41;;;20.69;37.36
62710;BME280;48770;51.624;5.886;2023-04-12T13:14:51;99691.66;;;20.69;37.26
62710;BME280;48770;51.624;5.886;2023-04-12T13:17:17;99690.06;;;20.68;37.37
62710;BME280;48770;51.624;5.886;2023-04-12T13:19:44;99698.38;;;20.68;37.30
62710;BME280;48770;51.624;5.886;2023-04-12T13:22:10;99674.56;;;20.67;37.40
62710;BME280;48770;51.624;5.886;2023-04-12T13:24:35;99657.91;;;20.67;37.48